Englewood, Colorado
Current Conditions -  °F | °C
As of 9:03 PM on Sunday 21 Dec 2014 (Local Time) from KAPA Reporting Station
Light Rain Light Rain  
Wind Chill:   Ceiling: 3100
Heat Index:   Visibility: 9mi
Dew Point:   Wind: 12mph
Humidity: 82%   Direction: 310°NW
Pressure: 29.62"   Gusts: NA
Location:  39.65°N, 104.99°W
Report Text: KAPA 220403Z 31010KT 9SM -RA SCT023 BKN031 OVC037 04/01 A2962 RMK AO2 P0000 T00390011
Loading
Personal Weather Stations






























Interactive Weather Map New forecast layout! Learn more

10-Day Weather Forecast

Advertisements
Track Severe Weather on mobile